Time;durP1;ratioP1;P1;durP2;ratioP2;P2;SDS_P1;SDS_P2;PMS_P1;PMS_P2;Temp;Humidity;BMP_temperature;BMP_pressure;BME280_temperature;BME280_humidity;BME280_pressure;Samples;Min_cycle;Max_cycle;Signal;HPM_P1;HPM_P2
2024/04/15 00:00:07;;;;;;;2.50;2.30;;;18.60;99.90;;;;;;5404959;26;20282;-68
2024/04/15 00:02:33;;;;;;;2.70;2.33;;;18.60;99.90;;;;;;5405488;26;20494;-68
2024/04/15 00:05:00;;;;;;;3.40;2.67;;;18.60;99.90;;;;;;5405129;26;20438;-68
2024/04/15 00:07:26;;;;;;;2.63;2.40;;;18.70;99.90;;;;;;5402873;26;20240;-68
2024/04/15 00:09:51;;;;;;;2.23;2.03;;;18.60;99.90;;;;;;5405179;26;20552;-67
2024/04/15 00:12:17;;;;;;;2.40;2.20;;;18.70;99.90;;;;;;5405164;26;20296;-67
2024/04/15 00:14:44;;;;;;;3.17;2.57;;;18.70;99.90;;;;;;5405559;26;20347;-68
2024/04/15 00:17:09;;;;;;;3.33;2.20;;;18.70;99.90;;;;;;5404909;26;20235;-68
2024/04/15 00:19:35;;;;;;;2.83;2.63;;;18.60;99.90;;;;;;5404929;26;20466;-67
2024/04/15 00:22:00;;;;;;;2.43;2.23;;;18.60;99.90;;;;;;5404443;26;20262;-68
2024/04/15 00:24:26;;;;;;;3.17;2.50;;;18.70;99.90;;;;;;5404861;26;20321;-67
2024/04/15 00:26:51;;;;;;;3.00;2.47;;;18.70;99.90;;;;;;5404543;26;20752;-67
2024/04/15 00:29:17;;;;;;;3.03;2.83;;;18.80;99.90;;;;;;5405005;26;20597;-68
2024/04/15 00:31:43;;;;;;;3.80;2.60;;;18.80;99.90;;;;;;5404551;26;20216;-67
2024/04/15 00:34:08;;;;;;;2.73;2.40;;;18.60;99.90;;;;;;5404788;26;20886;-68
2024/04/15 00:36:36;;;;;;;3.10;2.80;;;18.60;99.90;;;;;;5404435;26;20229;-68
2024/04/15 00:39:02;;;;;;;3.93;2.40;;;18.60;99.90;;;;;;5404386;26;20434;-68
2024/04/15 00:41:27;;;;;;;2.43;2.23;;;18.70;99.90;;;;;;5404725;26;20442;-68
2024/04/15 00:43:53;;;;;;;3.17;2.83;;;18.80;99.90;;;;;;5402600;26;21047;-68
2024/04/15 00:46:19;;;;;;;2.60;2.40;;;18.90;99.90;;;;;;5404716;26;20236;-68
2024/04/15 00:48:45;;;;;;;2.60;2.40;;;18.90;99.90;;;;;;5404414;26;20328;-68
2024/04/15 00:51:13;;;;;;;2.57;2.37;;;18.90;99.90;;;;;;5404637;26;20312;-68
2024/04/15 00:53:40;;;;;;;17.33;2.60;;;18.90;99.90;;;;;;5404555;26;20454;-68
2024/04/15 00:56:06;;;;;;;2.40;2.20;;;19.10;99.90;;;;;;5402721;26;20908;-68
2024/04/15 00:58:32;;;;;;;3.40;2.30;;;19.10;99.90;;;;;;5404445;26;20572;-68
2024/04/15 01:01:00;;;;;;;5.73;2.40;;;19.30;99.90;;;;;;5404890;26;20807;-68
2024/04/15 01:03:26;;;;;;;3.93;2.97;;;19.10;99.90;;;;;;5404402;26;20564;-68
2024/04/15 01:05:53;;;;;;;4.57;2.63;;;19.20;99.90;;;;;;5404691;26;20816;-68
2024/04/15 01:08:18;;;;;;;2.80;2.50;;;19.30;99.90;;;;;;5404383;26;20454;-68
2024/04/15 01:10:45;;;;;;;4.07;3.00;;;19.20;99.90;;;;;;5403968;26;20499;-68
2024/04/15 01:13:10;;;;;;;3.07;2.70;;;19.10;99.90;;;;;;5404209;26;20220;-68
2024/04/15 01:15:36;;;;;;;3.90;3.00;;;19.00;99.90;;;;;;5403928;26;20474;-67
2024/04/15 01:18:01;;;;;;;18.03;10.53;;;18.60;99.90;;;;;;5403200;26;20221;-68
2024/04/15 01:20:28;;;;;;;25.40;15.80;;;18.40;99.90;;;;;;5403174;26;20224;-68
2024/04/15 01:23:23;;;;;;;17.10;10.27;;;18.40;99.90;;;;;;5404342;26;20216;-69
2024/04/15 01:25:49;;;;;;;9.80;5.20;;;18.30;99.90;;;;;;5401428;26;20474;-68
2024/04/15 01:28:20;;;;;;;5.93;3.20;;;18.40;99.90;;;;;;5403419;26;20438;-68
2024/04/15 01:30:46;;;;;;;3.23;2.83;;;18.30;99.90;;;;;;5403719;26;20450;-68
2024/04/15 01:33:12;;;;;;;3.57;2.90;;;18.30;99.90;;;;;;5404068;26;20743;-68
2024/04/15 01:35:37;;;;;;;4.83;2.67;;;18.30;99.90;;;;;;5403395;26;21015;-67
2024/04/15 01:38:03;;;;;;;2.73;2.50;;;18.30;99.90;;;;;;5403779;26;20216;-68
2024/04/15 01:40:29;;;;;;;3.13;2.30;;;18.30;99.90;;;;;;5403661;26;20325;-68
2024/04/15 01:42:55;;;;;;;2.57;2.13;;;18.10;99.90;;;;;;5402884;26;20462;-68
2024/04/15 01:45:21;;;;;;;4.50;2.40;;;18.00;99.90;;;;;;5403727;26;20258;-68
2024/04/15 01:47:47;;;;;;;2.90;2.30;;;18.10;99.90;;;;;;5403723;26;20313;-68
2024/04/15 01:50:15;;;;;;;3.00;2.70;;;18.00;99.90;;;;;;5403644;26;20462;-68
2024/04/15 01:52:41;;;;;;;3.03;2.33;;;18.10;99.90;;;;;;5403669;26;20450;-68
2024/04/15 01:55:06;;;;;;;5.30;2.60;;;17.80;99.90;;;;;;5401607;26;20512;-67
2024/04/15 01:57:32;;;;;;;2.77;2.17;;;17.80;99.90;;;;;;5403335;26;20240;-67
2024/04/15 01:59:57;;;;;;;2.90;2.60;;;17.70;99.90;;;;;;5403182;26;20266;-68
2024/04/15 02:02:23;;;;;;;2.63;2.27;;;17.60;99.90;;;;;;5403542;26;20286;-68
2024/04/15 02:04:48;;;;;;;3.97;2.50;;;17.60;99.90;;;;;;5403244;26;20693;-67
2024/04/15 02:07:14;;;;;;;2.60;2.00;;;17.60;99.90;;;;;;5403682;26;20794;-68
2024/04/15 02:09:40;;;;;;;6.80;2.50;;;17.50;99.90;;;;;;5403155;26;20228;-68
2024/04/15 02:12:06;;;;;;;3.60;2.60;;;17.40;99.90;;;;;;5403707;26;20997;-68
2024/04/15 02:14:32;;;;;;;2.47;2.13;;;17.40;99.90;;;;;;5403579;26;20287;-68
2024/04/15 02:16:58;;;;;;;6.57;2.23;;;17.40;99.90;;;;;;5403446;26;20461;-67
2024/04/15 02:19:25;;;;;;;2.33;2.03;;;17.40;99.90;;;;;;5403487;26;20228;-68
2024/04/15 02:21:50;;;;;;;2.53;2.07;;;17.50;99.90;;;;;;5403176;26;21112;-68
2024/04/15 02:24:16;;;;;;;3.57;2.00;;;17.50;99.90;;;;;;5403627;26;20434;-67
2024/04/15 02:26:41;;;;;;;2.83;2.33;;;17.40;99.90;;;;;;5403120;26;20221;-67
2024/04/15 02:29:07;;;;;;;2.90;1.90;;;17.50;99.90;;;;;;5402860;26;20325;-67
2024/04/15 02:31:33;;;;;;;4.70;2.30;;;17.50;99.90;;;;;;5402952;26;20220;-67
2024/04/15 02:33:58;;;;;;;2.70;2.10;;;17.50;99.90;;;;;;5402961;26;20224;-67
2024/04/15 02:36:24;;;;;;;2.90;2.03;;;17.50;99.90;;;;;;5402684;26;20291;-67
2024/04/15 02:38:50;;;;;;;3.17;1.97;;;17.40;99.90;;;;;;5402953;26;20651;-68
2024/04/15 02:41:15;;;;;;;3.00;1.70;;;17.30;99.90;;;;;;5402744;26;20714;-67
2024/04/15 02:43:41;;;;;;;2.40;1.80;;;17.30;99.90;;;;;;5402887;26;20255;-68
2024/04/15 02:46:06;;;;;;;3.10;2.13;;;17.30;99.90;;;;;;5402726;26;20231;-67
2024/04/15 02:48:33;;;;;;;2.20;1.83;;;17.30;99.90;;;;;;5402849;26;20220;-67
2024/04/15 02:50:59;;;;;;;2.50;2.03;;;17.40;99.90;;;;;;5402740;26;20216;-67
2024/04/15 02:53:25;;;;;;;4.20;1.73;;;17.50;99.90;;;;;;5402700;26;20518;-68
2024/04/15 02:55:53;;;;;;;2.33;1.80;;;17.60;99.90;;;;;;5402630;26;20461;-67
2024/04/15 02:58:19;;;;;;;2.80;1.80;;;17.70;99.90;;;;;;5402452;26;20224;-69
2024/04/15 03:00:44;;;;;;;6.47;2.00;;;17.80;99.90;;;;;;5402480;26;20507;-68
2024/04/15 03:03:10;;;;;;;3.80;1.70;;;17.80;99.90;;;;;;5402419;26;20281;-67
2024/04/15 03:05:40;;;;;;;6.00;2.43;;;17.90;99.90;;;;;;5400601;26;20232;-67
2024/04/15 03:08:05;;;;;;;4.20;2.20;;;17.80;99.90;;;;;;5402082;26;20220;-67
2024/04/15 03:10:31;;;;;;;2.50;2.10;;;17.90;99.90;;;;;;5402390;26;20514;-68
2024/04/15 03:12:56;;;;;;;1.97;1.70;;;17.70;99.90;;;;;;5402129;26;20212;-67
2024/04/15 03:15:22;;;;;;;2.13;1.80;;;17.90;99.90;;;;;;5402367;26;20240;-67
2024/04/15 03:17:48;;;;;;;2.63;1.90;;;18.00;99.90;;;;;;5402154;26;20701;-67
2024/04/15 03:20:14;;;;;;;2.40;2.13;;;17.90;99.90;;;;;;5402323;26;20228;-67
2024/04/15 03:22:40;;;;;;;1.93;1.70;;;18.10;99.90;;;;;;5401952;26;21212;-68
2024/04/15 03:25:05;;;;;;;2.50;2.03;;;18.20;99.90;;;;;;5402479;26;20258;-68
2024/04/15 03:27:31;;;;;;;3.63;2.13;;;17.90;99.90;;;;;;5401219;26;20232;-67
2024/04/15 03:29:56;;;;;;;1.87;1.67;;;17.70;99.90;;;;;;5402239;26;20581;-67
2024/04/15 03:32:22;;;;;;;3.60;2.03;;;17.60;99.90;;;;;;5401857;26;20753;-67
2024/04/15 03:34:47;;;;;;;3.17;2.40;;;17.30;99.90;;;;;;5401710;26;20267;-67
2024/04/15 03:37:13;;;;;;;3.33;1.83;;;17.20;99.90;;;;;;5402012;26;20232;-67
2024/04/15 03:39:39;;;;;;;2.13;1.70;;;17.20;99.90;;;;;;5401811;26;20764;-68
2024/04/15 03:42:04;;;;;;;4.30;1.80;;;17.30;99.90;;;;;;5402976;26;20642;-68
2024/04/15 03:44:30;;;;;;;2.20;2.00;;;17.50;99.90;;;;;;5405130;26;20706;-67
2024/04/15 03:46:55;;;;;;;2.60;2.20;;;17.30;99.90;;;;;;5405591;26;20228;-68
2024/04/15 03:49:21;;;;;;;3.13;1.83;;;17.30;99.90;;;;;;5405081;26;20302;-68
2024/04/15 03:51:46;;;;;;;1.80;1.70;;;17.40;99.90;;;;;;5405381;26;20225;-67
2024/04/15 03:54:12;;;;;;;2.13;1.93;;;17.50;99.90;;;;;;5405168;26;20279;-67
2024/04/15 03:56:38;;;;;;;4.13;2.27;;;17.60;99.90;;;;;;5405526;26;20272;-68
2024/04/15 03:59:04;;;;;;;2.53;1.90;;;17.70;99.90;;;;;;5405167;26;20232;-68
2024/04/15 04:01:29;;;;;;;14.13;8.47;;;17.70;99.90;;;;;;5405298;26;20498;-67
2024/04/15 04:03:55;;;;;;;12.20;7.27;;;17.70;99.90;;;;;;5403185;26;20216;-67
2024/04/15 04:06:20;;;;;;;9.43;6.77;;;17.70;99.90;;;;;;5405153;26;20232;-67
2024/04/15 04:08:46;;;;;;;5.43;3.60;;;17.80;99.90;;;;;;5404716;26;20378;-67
2024/04/15 04:11:11;;;;;;;3.47;3.00;;;17.60;99.90;;;;;;5404445;26;20228;-67
2024/04/15 04:13:37;;;;;;;3.20;2.30;;;17.50;99.90;;;;;;5404655;26;20328;-67
2024/04/15 04:16:04;;;;;;;3.17;2.30;;;17.40;99.90;;;;;;5404972;26;20750;-67
2024/04/15 04:18:29;;;;;;;3.03;2.20;;;17.30;99.90;;;;;;5405027;26;20587;-68
2024/04/15 04:20:55;;;;;;;2.87;2.17;;;17.30;99.90;;;;;;5404963;26;20457;-67
2024/04/15 04:23:20;;;;;;;2.40;1.90;;;17.30;99.90;;;;;;5404836;26;20216;-68
2024/04/15 04:25:49;;;;;;;3.40;2.40;;;17.20;99.90;;;;;;5405075;26;20224;-69
2024/04/15 04:28:15;;;;;;;2.90;2.13;;;17.10;99.90;;;;;;5404886;26;20974;-68
2024/04/15 04:30:40;;;;;;;4.20;2.23;;;17.10;99.90;;;;;;5404472;26;20454;-69
2024/04/15 04:33:06;;;;;;;2.27;2.00;;;17.10;99.90;;;;;;5404771;26;20228;-68
2024/04/15 04:35:40;;;;;;;3.77;2.13;;;17.10;99.90;;;;;;5404655;26;20224;-68
2024/04/15 04:38:06;;;;;;;2.90;1.87;;;17.30;99.90;;;;;;5404636;26;20687;-69
2024/04/15 04:40:33;;;;;;;1.93;1.60;;;17.40;99.90;;;;;;5405139;26;20597;-68
2024/04/15 04:42:58;;;;;;;2.13;1.93;;;17.60;99.90;;;;;;5404687;26;20522;-68
2024/04/15 04:45:25;;;;;;;3.70;1.80;;;17.60;99.90;;;;;;5404631;26;20648;-68
2024/04/15 04:47:51;;;;;;;3.00;1.80;;;17.70;99.90;;;;;;5404691;26;20702;-66
2024/04/15 04:50:16;;;;;;;2.50;2.30;;;17.60;99.90;;;;;;5404377;26;20500;-67
2024/04/15 04:52:42;;;;;;;2.73;2.10;;;17.60;99.90;;;;;;5403210;26;20270;-67
2024/04/15 04:55:07;;;;;;;2.80;2.27;;;17.70;99.90;;;;;;5404743;26;20236;-66
2024/04/15 04:57:34;;;;;;;3.47;1.97;;;17.60;99.90;;;;;;5404459;26;20239;-67
2024/04/15 04:59:59;;;;;;;2.40;1.87;;;17.40;99.90;;;;;;5404114;26;20267;-68
2024/04/15 05:02:25;;;;;;;2.43;2.23;;;17.30;99.90;;;;;;5404665;26;20812;-68
2024/04/15 05:04:55;;;;;;;2.77;1.90;;;17.30;99.90;;;;;;5404076;26;20209;-68
2024/04/15 05:07:21;;;;;;;2.70;1.80;;;17.30;99.90;;;;;;5404154;26;20749;-68
2024/04/15 05:09:46;;;;;;;4.27;2.50;;;17.40;99.90;;;;;;5404287;26;20535;-68
2024/04/15 05:12:12;;;;;;;4.47;2.20;;;17.20;99.90;;;;;;5403862;26;20228;-67
2024/04/15 05:14:38;;;;;;;3.43;1.73;;;17.30;99.90;;;;;;5404158;26;20231;-67
2024/04/15 05:17:04;;;;;;;2.10;1.83;;;17.20;99.90;;;;;;5403956;26;20331;-67
2024/04/15 05:19:30;;;;;;;2.60;2.00;;;17.30;99.90;;;;;;5404053;26;20275;-67
2024/04/15 05:21:55;;;;;;;3.80;1.90;;;17.30;99.90;;;;;;5403776;26;20593;-67
2024/04/15 05:24:21;;;;;;;2.60;2.03;;;17.40;99.90;;;;;;5403867;26;20324;-67
2024/04/15 05:26:46;;;;;;;2.70;2.10;;;17.50;99.90;;;;;;5403168;26;20303;-67
2024/04/15 05:29:12;;;;;;;2.40;2.20;;;17.40;99.90;;;;;;5403483;26;20220;-67
2024/04/15 05:31:38;;;;;;;4.77;2.07;;;17.10;99.90;;;;;;5403718;26;20262;-67
2024/04/15 05:34:03;;;;;;;2.97;2.07;;;16.80;99.90;;;;;;5403646;26;20225;-66
2024/04/15 05:36:29;;;;;;;3.57;1.77;;;16.60;99.90;;;;;;5403762;26;20287;-67
2024/04/15 05:38:54;;;;;;;3.90;2.20;;;16.60;99.90;;;;;;5403425;26;20232;-66
2024/04/15 05:41:20;;;;;;;3.40;1.80;;;16.60;99.90;;;;;;5404350;26;20224;-67
2024/04/15 05:43:45;;;;;;;3.80;2.03;;;16.60;99.90;;;;;;5403048;26;20228;-67
2024/04/15 05:46:11;;;;;;;4.70;1.60;;;16.50;99.90;;;;;;5403492;26;20263;-68
2024/04/15 05:48:38;;;;;;;2.10;1.63;;;16.50;99.90;;;;;;5403419;26;20298;-67
2024/04/15 05:51:04;;;;;;;2.40;1.60;;;16.50;99.90;;;;;;5403333;26;20224;-68
2024/04/15 05:53:29;;;;;;;2.37;1.97;;;16.50;99.90;;;;;;5403289;26;20498;-67
2024/04/15 05:55:56;;;;;;;3.07;1.87;;;16.50;99.90;;;;;;5400900;26;20248;-67
2024/04/15 05:58:22;;;;;;;1.90;1.67;;;16.60;99.90;;;;;;5403391;26;20228;-68
2024/04/15 06:00:47;;;;;;;2.90;2.13;;;16.50;99.90;;;;;;5403191;26;20554;-67
2024/04/15 06:03:13;;;;;;;2.80;2.10;;;16.30;99.90;;;;;;5403856;26;20329;-67
2024/04/15 06:05:38;;;;;;;3.80;1.77;;;16.30;99.90;;;;;;5402193;26;20232;-67
2024/04/15 06:08:04;;;;;;;2.30;1.63;;;16.30;99.90;;;;;;5403538;26;21028;-67
2024/04/15 06:10:30;;;;;;;1.93;1.60;;;16.40;99.90;;;;;;5403293;26;20225;-68
2024/04/15 06:12:55;;;;;;;2.43;1.57;;;16.30;99.90;;;;;;5403157;26;20587;-68
2024/04/15 06:15:21;;;;;;;3.47;1.60;;;16.10;99.90;;;;;;5403114;26;20659;-68
2024/04/15 06:17:46;;;;;;;2.40;1.53;;;16.10;99.90;;;;;;5402854;26;21475;-68
2024/04/15 06:20:13;;;;;;;2.33;1.50;;;16.00;99.90;;;;;;5402892;26;20278;-68
2024/04/15 06:22:38;;;;;;;6.17;1.90;;;15.90;99.90;;;;;;5401149;26;20548;-68
2024/04/15 06:25:04;;;;;;;6.03;2.10;;;15.90;99.90;;;;;;5402898;26;20462;-68
2024/04/15 06:27:30;;;;;;;2.83;1.60;;;15.90;99.90;;;;;;5401864;26;20229;-68
2024/04/15 06:29:56;;;;;;;4.70;1.90;;;15.80;99.90;;;;;;5402743;26;20721;-69
2024/04/15 06:32:21;;;;;;;2.70;2.13;;;15.80;99.90;;;;;;5402424;26;20450;-67
2024/04/15 06:34:47;;;;;;;31.23;17.07;;;15.80;99.90;;;;;;5402360;26;20268;-66
2024/04/15 06:37:13;;;;;;;32.97;17.00;;;15.80;99.90;;;;;;5402133;26;20228;-67
2024/04/15 06:39:38;;;;;;;9.00;4.70;;;15.90;99.90;;;;;;5402472;26;20228;-68
2024/04/15 06:42:04;;;;;;;4.33;2.30;;;16.10;99.90;;;;;;5402372;26;20325;-68
2024/04/15 06:44:31;;;;;;;4.53;2.20;;;15.80;99.90;;;;;;5402722;26;20419;-67
2024/04/15 06:46:57;;;;;;;4.57;2.40;;;15.90;99.90;;;;;;5402671;26;20232;-67
2024/04/15 06:49:22;;;;;;;4.67;2.00;;;15.90;99.90;;;;;;5402016;26;20511;-67
2024/04/15 06:51:48;;;;;;;4.10;2.33;;;15.80;99.90;;;;;;5402436;26;20266;-68
2024/04/15 06:54:13;;;;;;;2.77;2.10;;;15.80;99.90;;;;;;5401892;26;20212;-68
2024/04/15 06:56:39;;;;;;;4.00;2.20;;;15.90;99.90;;;;;;5402301;26;20243;-68
2024/04/15 06:59:04;;;;;;;3.90;1.60;;;16.00;99.90;;;;;;5401994;26;20562;-67
2024/04/15 07:01:30;;;;;;;4.30;1.80;;;15.90;99.90;;;;;;5402106;26;20259;-67
2024/04/15 07:03:56;;;;;;;5.77;2.40;;;15.80;99.90;;;;;;5402033;26;20220;-67
2024/04/15 07:06:25;;;;;;;3.23;1.70;;;15.80;99.90;;;;;;5402247;26;20228;-67
2024/04/15 07:08:51;;;;;;;2.47;1.73;;;15.80;99.90;;;;;;5402495;26;20441;-67
2024/04/15 07:11:16;;;;;;;2.90;2.20;;;15.80;99.90;;;;;;5401818;26;20458;-67
2024/04/15 07:13:42;;;;;;;7.10;2.43;;;15.80;99.90;;;;;;5401741;26;20262;-68
2024/04/15 07:16:09;;;;;;;3.33;2.00;;;15.60;99.90;;;;;;5401802;26;20228;-68
2024/04/15 07:18:35;;;;;;;2.87;1.90;;;15.40;99.90;;;;;;5404803;26;20468;-67
2024/04/15 07:21:01;;;;;;;2.40;1.70;;;15.30;99.90;;;;;;5405424;26;20457;-67
2024/04/15 07:23:26;;;;;;;3.83;2.50;;;15.30;99.90;;;;;;5406280;26;20805;-67
2024/04/15 07:25:56;;;;;;;2.60;1.83;;;15.30;99.90;;;;;;5406616;26;20302;-69
2024/04/15 07:28:22;;;;;;;3.13;2.23;;;15.40;99.90;;;;;;5406009;26;20216;-68
2024/04/15 07:30:58;;;;;;;3.63;1.90;;;15.50;99.90;;;;;;5404995;26;20454;-68
2024/04/15 07:33:24;;;;;;;5.60;2.57;;;15.60;99.90;;;;;;5374476;26;20261;-68
2024/04/15 07:36:01;;;;;;;3.53;2.40;;;15.70;99.90;;;;;;5405028;26;20469;-68
2024/04/15 07:38:27;;;;;;;5.93;2.40;;;15.80;99.90;;;;;;5405033;26;20216;-67
2024/04/15 07:40:54;;;;;;;3.50;2.30;;;15.80;99.90;;;;;;5405121;26;20564;-68
2024/04/15 07:43:19;;;;;;;4.40;2.70;;;16.20;99.90;;;;;;5405199;26;20252;-68
2024/04/15 07:45:45;;;;;;;3.97;2.43;;;16.00;99.90;;;;;;5404000;26;20807;-68
2024/04/15 07:48:12;;;;;;;5.30;2.80;;;15.90;99.90;;;;;;5405069;26;20624;-68
2024/04/15 07:50:38;;;;;;;5.30;2.80;;;16.10;99.90;;;;;;5401625;26;20595;-68
2024/04/15 07:53:03;;;;;;;3.03;2.40;;;15.90;99.90;;;;;;5402474;26;20556;-68
2024/04/15 07:55:29;;;;;;;3.63;2.97;;;15.90;99.90;;;;;;5401758;26;20333;-68
2024/04/15 07:57:57;;;;;;;5.70;2.70;;;15.90;99.90;;;;;;5402541;26;20683;-67
2024/04/15 08:00:23;;;;;;;4.07;2.83;;;16.10;99.90;;;;;;5402439;26;20290;-68
2024/04/15 08:02:49;;;;;;;3.80;2.80;;;16.20;99.90;;;;;;5403004;26;20438;-68
2024/04/15 08:05:14;;;;;;;3.97;3.10;;;16.30;99.90;;;;;;5402770;26;20220;-68
2024/04/15 08:07:40;;;;;;;5.50;3.20;;;16.40;99.90;;;;;;5404312;26;20409;-68
2024/04/15 08:10:06;;;;;;;7.30;3.07;;;16.50;99.90;;;;;;5405117;26;20267;-68
2024/04/15 08:12:31;;;;;;;6.00;2.97;;;16.30;99.90;;;;;;5404592;26;20258;-68
2024/04/15 08:14:58;;;;;;;7.47;3.27;;;16.20;99.90;;;;;;5404695;26;20747;-69
2024/04/15 08:17:23;;;;;;;10.03;3.10;;;16.20;99.90;;;;;;5404569;26;20589;-69
2024/04/15 08:19:51;;;;;;;5.80;2.90;;;16.20;99.90;;;;;;5404807;26;20462;-69
2024/04/15 08:22:16;;;;;;;4.07;3.30;;;16.40;99.90;;;;;;5404189;26;20228;-68
2024/04/15 08:24:42;;;;;;;3.80;2.93;;;16.70;99.90;;;;;;5404354;26;20506;-68
2024/04/15 08:27:08;;;;;;;3.73;3.30;;;16.60;99.90;;;;;;5404076;26;20232;-68
2024/04/15 08:29:33;;;;;;;6.23;3.23;;;16.50;99.90;;;;;;5404338;26;20278;-69
2024/04/15 08:31:59;;;;;;;7.27;3.00;;;16.40;99.90;;;;;;5405033;26;20488;-68
2024/04/15 08:34:24;;;;;;;7.07;3.77;;;16.50;99.90;;;;;;5404843;26;20224;-68
2024/04/15 08:36:50;;;;;;;5.60;3.50;;;16.50;99.90;;;;;;5405054;26;20271;-67
2024/04/15 08:39:15;;;;;;;5.20;3.30;;;16.70;99.90;;;;;;5404737;26;20279;-68
2024/04/15 08:41:48;;;;;;;4.37;3.57;;;16.90;99.90;;;;;;5404758;26;20216;-69
2024/04/15 08:44:18;;;;;;;5.30;3.00;;;17.20;99.90;;;;;;5402718;26;20212;-68
2024/04/15 08:46:47;;;;;;;4.83;3.20;;;17.40;99.90;;;;;;5404437;26;20454;-67
2024/04/15 08:49:13;;;;;;;7.10;3.63;;;17.40;99.90;;;;;;5404636;26;20450;-67
2024/04/15 08:51:40;;;;;;;4.83;3.90;;;17.30;99.90;;;;;;5404276;26;20498;-68
2024/04/15 08:54:06;;;;;;;4.33;3.33;;;17.50;99.90;;;;;;5404220;26;20666;-67
2024/04/15 08:56:33;;;;;;;5.87;3.27;;;17.50;99.90;;;;;;5404509;26;20458;-68
2024/04/15 08:59:00;;;;;;;5.80;3.63;;;17.40;99.90;;;;;;5404383;26;20458;-68
2024/04/15 09:01:26;;;;;;;4.30;3.60;;;17.50;99.90;;;;;;5403939;26;21076;-68
2024/04/15 09:03:52;;;;;;;5.70;3.63;;;17.50;99.90;;;;;;5404280;26;21339;-68
2024/04/15 09:06:19;;;;;;;4.37;3.67;;;17.70;99.90;;;;;;5403885;26;20450;-68
2024/04/15 09:08:44;;;;;;;5.73;3.57;;;17.70;99.90;;;;;;5404397;26;20275;-67
2024/04/15 09:11:13;;;;;;;3.70;3.10;;;17.80;99.90;;;;;;5404164;26;20462;-67
2024/04/15 09:13:38;;;;;;;5.43;3.63;;;17.70;99.90;;;;;;5404261;26;20220;-68
2024/04/15 09:16:04;;;;;;;3.43;3.10;;;17.90;99.90;;;;;;5403626;26;20570;-69
2024/04/15 09:18:29;;;;;;;5.80;3.97;;;18.00;99.90;;;;;;5404145;26;21111;-66
2024/04/15 09:20:55;;;;;;;5.40;3.47;;;17.70;99.90;;;;;;5404501;26;20595;-68
2024/04/15 09:23:21;;;;;;;4.00;3.60;;;17.40;99.90;;;;;;5404303;26;20266;-67
2024/04/15 09:25:47;;;;;;;3.90;3.10;;;17.40;99.90;;;;;;5432411;26;20244;-68
2024/04/15 09:28:13;;;;;;;4.33;3.20;;;17.40;99.90;;;;;;5404622;26;20225;-68
2024/04/15 09:30:38;;;;;;;6.93;3.40;;;17.70;99.90;;;;;;5404185;26;20510;-68
2024/04/15 09:33:05;;;;;;;9.80;3.00;;;17.70;99.90;;;;;;5404373;26;20263;-68
2024/04/15 09:35:31;;;;;;;4.10;3.27;;;18.30;99.90;;;;;;5403808;26;20321;-68
2024/04/15 09:37:58;;;;;;;5.60;3.10;;;18.40;99.90;;;;;;5404063;26;20498;-68
2024/04/15 09:40:25;;;;;;;6.30;3.07;;;18.40;99.90;;;;;;5401975;26;20502;-68
2024/04/15 09:42:52;;;;;;;4.90;3.40;;;18.40;99.90;;;;;;5403633;26;20442;-67
2024/04/15 09:45:19;;;;;;;4.47;3.40;;;18.30;99.90;;;;;;5403946;26;20485;-68
2024/04/15 09:47:46;;;;;;;5.63;3.30;;;18.80;99.90;;;;;;5403732;26;20446;-68
2024/04/15 09:50:12;;;;;;;3.57;2.40;;;18.80;99.90;;;;;;5402530;26;20462;-67
2024/04/15 09:52:40;;;;;;;4.60;2.00;;;18.90;99.90;;;;;;5403898;26;20881;-68
2024/04/15 09:55:08;;;;;;;5.00;2.93;;;18.80;99.90;;;;;;5403842;26;20220;-68
2024/04/15 09:57:41;;;;;;;5.37;2.70;;;18.70;99.90;;;;;;5403220;26;20509;-68
2024/04/15 10:00:13;;;;;;;4.10;2.60;;;18.60;99.90;;;;;;5403597;26;20503;-68
2024/04/15 10:03:11;;;;;;;5.47;2.23;;;18.60;99.90;;;;;;5403735;26;20442;-68
2024/04/15 10:05:40;;;;;;;4.23;2.23;;;18.20;99.90;;;;;;5380390;26;20470;-68
2024/04/15 10:08:06;;;;;;;6.47;2.57;;;18.10;99.90;;;;;;5403914;26;20502;-68
2024/04/15 10:10:32;;;;;;;4.03;2.27;;;18.20;99.90;;;;;;5403509;26;20446;-68
2024/04/15 10:13:03;;;;;;;4.80;2.80;;;18.30;99.90;;;;;;5403271;26;20505;-68
2024/04/15 10:15:30;;;;;;;5.13;2.23;;;18.30;99.90;;;;;;5403326;26;20526;-68
2024/04/15 10:18:08;;;;;;;4.00;2.20;;;19.00;99.90;;;;;;5403546;26;20438;-68
2024/04/15 10:20:36;;;;;;;2.90;2.10;;;19.20;99.90;;;;;;5399852;26;21343;-68
2024/04/15 10:23:07;;;;;;;3.90;1.97;;;19.10;99.90;;;;;;5403358;26;20840;-67
2024/04/15 10:25:36;;;;;;;2.90;1.90;;;19.20;99.90;;;;;;5404365;26;20548;-68
2024/04/15 10:28:05;;;;;;;5.30;2.60;;;19.60;99.90;;;;;;5403866;26;21007;-67
2024/04/15 10:30:32;;;;;;;3.23;1.70;;;20.00;99.90;;;;;;5403116;26;20685;-68
2024/04/15 10:33:04;;;;;;;2.10;1.90;;;19.80;99.90;;;;;;5402899;26;20888;-68
2024/04/15 10:35:35;;;;;;;4.03;2.07;;;19.50;99.90;;;;;;5402395;26;20495;-68
2024/04/15 10:38:03;;;;;;;3.43;2.37;;;19.10;99.90;;;;;;5403091;26;20557;-68
2024/04/15 10:40:33;;;;;;;3.33;1.90;;;19.00;99.90;;;;;;5402861;26;20558;-68
2024/04/15 10:42:59;;;;;;;3.00;1.80;;;19.00;99.90;;;;;;5403003;26;21793;-68
2024/04/15 10:45:26;;;;;;;3.40;2.53;;;18.90;99.90;;;;;;5402572;26;20438;-68
2024/04/15 10:47:52;;;;;;;2.10;1.90;;;18.80;99.90;;;;;;5402545;26;20280;-67
2024/04/15 10:50:18;;;;;;;3.67;1.80;;;18.80;99.90;;;;;;5402399;26;20527;-69
2024/04/15 10:52:43;;;;;;;3.57;2.07;;;18.80;99.90;;;;;;5402268;26;20875;-68
2024/04/15 10:55:09;;;;;;;5.40;3.10;;;18.80;99.90;;;;;;5402576;26;20266;-68
2024/04/15 10:57:35;;;;;;;3.50;1.80;;;18.60;99.90;;;;;;5402185;26;20274;-70
2024/04/15 11:00:01;;;;;;;3.53;2.10;;;18.60;99.90;;;;;;5402201;26;20349;-69
2024/04/15 11:02:28;;;;;;;3.80;2.10;;;18.70;99.90;;;;;;5402501;26;20283;-68
2024/04/15 11:04:53;;;;;;;3.83;2.33;;;18.60;99.90;;;;;;5402481;26;20355;-68
2024/04/15 11:07:20;;;;;;;2.63;1.67;;;18.50;99.90;;;;;;5402258;26;20454;-68
2024/04/15 11:09:46;;;;;;;3.10;1.80;;;18.60;99.90;;;;;;5401987;26;20563;-68
2024/04/15 11:12:11;;;;;;;4.33;2.00;;;18.70;99.90;;;;;;5402053;26;20498;-68
2024/04/15 11:14:37;;;;;;;5.50;2.33;;;18.90;99.90;;;;;;5401461;26;20722;-68
2024/04/15 11:17:06;;;;;;;5.90;2.03;;;19.00;99.90;;;;;;5399803;26;20832;-67
2024/04/15 11:19:31;;;;;;;2.47;2.03;;;19.30;99.90;;;;;;5401936;26;20343;-68
2024/04/15 11:22:08;;;;;;;6.00;2.50;;;19.40;99.90;;;;;;5402296;26;20824;-68
2024/04/15 11:24:36;;;;;;;4.03;2.07;;;19.50;99.90;;;;;;5401047;26;20721;-67
2024/04/15 11:27:07;;;;;;;2.87;2.40;;;19.50;99.90;;;;;;5401358;26;20557;-69
2024/04/15 11:29:33;;;;;;;4.57;2.23;;;19.70;99.90;;;;;;5402067;26;20810;-67
2024/04/15 11:31:59;;;;;;;3.73;2.73;;;19.70;99.90;;;;;;5401771;26;20951;-68
2024/04/15 11:34:24;;;;;;;8.57;2.30;;;19.50;99.90;;;;;;5401416;26;20427;-67
2024/04/15 11:36:50;;;;;;;4.30;1.70;;;19.50;99.90;;;;;;5401518;26;20549;-68
2024/04/15 11:39:16;;;;;;;6.20;1.90;;;19.50;99.90;;;;;;5401514;26;20224;-68
2024/04/15 11:41:44;;;;;;;2.60;2.00;;;19.60;99.90;;;;;;5401650;26;20289;-68
2024/04/15 11:44:10;;;;;;;3.57;2.17;;;19.50;99.90;;;;;;5401602;26;22088;-68
2024/04/15 11:46:42;;;;;;;3.40;2.13;;;19.50;99.90;;;;;;5401279;26;20524;-67
2024/04/15 11:49:08;;;;;;;4.73;2.40;;;19.30;99.90;;;;;;5401261;26;20551;-68
2024/04/15 11:51:37;;;;;;;4.43;2.53;;;18.80;99.90;;;;;;5401264;26;20454;-67
2024/04/15 11:54:02;;;;;;;2.10;1.90;;;18.70;99.90;;;;;;5400855;26;20503;-68
2024/04/15 11:56:28;;;;;;;3.80;2.37;;;18.60;99.90;;;;;;5400906;26;20457;-67
2024/04/15 11:58:54;;;;;;;5.90;3.43;;;18.50;99.90;;;;;;5401149;26;20228;-68
2024/04/15 12:01:20;;;;;;;4.87;2.50;;;18.40;99.90;;;;;;5401342;26;20325;-67
2024/04/15 12:03:46;;;;;;;5.37;2.80;;;18.10;99.90;;;;;;5403508;26;20458;-68
2024/04/15 12:06:11;;;;;;;3.63;2.70;;;18.30;99.90;;;;;;5404607;26;20220;-68
2024/04/15 12:08:37;;;;;;;5.00;3.00;;;18.40;99.90;;;;;;5404963;26;20314;-68
2024/04/15 12:11:12;;;;;;;4.10;2.57;;;18.50;99.90;;;;;;5404738;26;20232;-68
2024/04/15 12:13:37;;;;;;;4.80;2.80;;;19.00;99.90;;;;;;5404025;26;20433;-68
2024/04/15 12:16:05;;;;;;;5.07;2.10;;;18.60;99.90;;;;;;5404526;26;20458;-68
2024/04/15 12:18:30;;;;;;;3.97;2.60;;;19.00;99.90;;;;;;5404520;26;20317;-68
2024/04/15 12:20:56;;;;;;;6.00;3.10;;;19.00;99.90;;;;;;5404450;26;20525;-69
2024/04/15 12:23:21;;;;;;;4.63;2.47;;;19.30;99.90;;;;;;5403642;26;20336;-67
2024/04/15 12:25:48;;;;;;;4.50;2.43;;;19.90;99.90;;;;;;5404392;26;20358;-68
2024/04/15 12:28:14;;;;;;;5.47;2.50;;;20.50;99.90;;;;;;5404352;26;20213;-68
2024/04/15 12:30:39;;;;;;;3.17;2.47;;;20.90;99.90;;;;;;5404158;26;20442;-68
2024/04/15 12:33:05;;;;;;;5.00;2.90;;;20.30;99.90;;;;;;5404398;26;21095;-69
2024/04/15 12:35:30;;;;;;;5.37;2.83;;;20.20;99.90;;;;;;5403962;26;20655;-68
2024/04/15 12:37:56;;;;;;;3.90;2.33;;;20.60;99.90;;;;;;5404207;26;20617;-69
2024/04/15 12:40:22;;;;;;;3.80;2.20;;;20.90;99.90;;;;;;5404283;26;20246;-68